createdAt,value
2017-06-21T00:00:48.307Z,0
2017-06-21T00:01:48.299Z,0
2017-06-21T00:02:48.290Z,0
2017-06-21T00:03:47.977Z,0
2017-06-21T00:04:48.278Z,0
2017-06-21T00:05:47.964Z,0
2017-06-21T00:06:47.656Z,0
2017-06-21T00:07:48.288Z,0
2017-06-21T00:08:48.241Z,0
2017-06-21T00:09:48.232Z,0
2017-06-21T00:10:48.226Z,0
2017-06-21T00:11:48.214Z,0
2017-06-21T00:12:48.205Z,0
2017-06-21T00:13:48.199Z,0
2017-06-21T00:14:48.187Z,0
2017-06-21T00:15:48.176Z,0
2017-06-21T00:16:48.169Z,0
2017-06-21T00:17:48.156Z,0
2017-06-21T00:18:48.154Z,0
2017-06-21T00:19:48.140Z,0
2017-06-21T00:20:48.135Z,0
2017-06-21T00:21:47.826Z,0
2017-06-21T00:22:48.316Z,0
2017-06-21T00:23:48.104Z,0
2017-06-21T00:24:48.096Z,0
2017-06-21T00:25:48.092Z,0
2017-06-21T00:26:48.082Z,0
2017-06-21T00:27:48.264Z,0
2017-06-21T00:28:48.261Z,0
2017-06-21T00:29:47.741Z,0
2017-06-21T00:30:48.042Z,0
2017-06-21T00:31:48.037Z,0
2017-06-21T00:32:48.017Z,0
2017-06-21T00:33:48.017Z,0
2017-06-21T00:34:48.007Z,0
2017-06-21T00:35:47.996Z,0
2017-06-21T00:36:47.681Z,0
2017-06-21T00:37:47.973Z,0
2017-06-21T00:38:47.969Z,0
2017-06-21T00:39:47.960Z,0
2017-06-21T00:40:47.950Z,0
2017-06-21T00:41:47.937Z,0
2017-06-21T00:42:47.927Z,0
2017-06-21T00:43:47.925Z,0
2017-06-21T00:44:47.911Z,0
2017-06-21T00:45:47.912Z,0
2017-06-21T00:46:47.899Z,0
2017-06-21T00:47:47.877Z,0
2017-06-21T00:48:47.878Z,0
2017-06-21T00:49:47.869Z,0
2017-06-21T00:50:47.856Z,0
2017-06-21T00:51:47.554Z,0
2017-06-21T00:52:47.538Z,0
2017-06-21T00:53:47.831Z,0
2017-06-21T00:54:47.820Z,0
2017-06-21T00:55:47.811Z,0
2017-06-21T00:56:47.802Z,0
2017-06-21T00:57:47.794Z,0
2017-06-21T00:58:47.479Z,0
2017-06-21T00:59:47.783Z,0
2017-06-21T01:00:47.763Z,0
2017-06-21T01:01:47.759Z,0
2017-06-21T01:02:47.449Z,0
2017-06-21T01:03:47.741Z,0
2017-06-21T01:04:47.726Z,0
2017-06-21T01:05:47.756Z,0
2017-06-21T01:06:47.711Z,0
2017-06-21T01:07:47.704Z,0
2017-06-21T01:08:47.692Z,0
2017-06-21T01:09:47.684Z,0
2017-06-21T01:10:47.681Z,0
2017-06-21T01:11:47.665Z,0
2017-06-21T01:12:47.651Z,0
2017-06-21T01:13:47.345Z,0
2017-06-21T01:14:47.636Z,0
2017-06-21T01:15:47.629Z,0
2017-06-21T01:16:47.619Z,0
2017-06-21T01:17:47.609Z,0
2017-06-21T01:18:47.599Z,0
2017-06-21T01:19:47.289Z,0
2017-06-21T01:20:47.578Z,0
2017-06-21T01:21:47.274Z,0
2017-06-21T01:22:47.561Z,0
2017-06-21T01:23:47.550Z,0
2017-06-21T01:24:47.240Z,0
2017-06-21T01:25:47.232Z,0
2017-06-21T01:26:47.523Z,0
2017-06-21T01:27:47.509Z,0
2017-06-21T01:28:47.504Z,0
2017-06-21T01:29:47.497Z,0
2017-06-21T01:30:47.487Z,0
2017-06-21T01:31:47.485Z,0
2017-06-21T01:32:47.202Z,0
2017-06-21T01:33:47.460Z,0
2017-06-21T01:34:47.447Z,0
2017-06-21T01:35:47.439Z,0
2017-06-21T01:36:47.122Z,0
2017-06-21T01:37:47.428Z,0
2017-06-21T01:38:47.414Z,0
2017-06-21T01:39:47.400Z,0
2017-06-21T01:40:47.391Z,0
2017-06-21T01:41:47.380Z,0
2017-06-21T01:42:47.371Z,0
2017-06-21T01:43:47.371Z,0
2017-06-21T01:44:47.356Z,0
2017-06-21T01:45:47.345Z,0
2017-06-21T01:46:47.329Z,0
2017-06-21T01:47:47.325Z,0
2017-06-21T01:48:47.313Z,0
2017-06-21T01:49:47.306Z,0
2017-06-21T01:50:47.299Z,0
2017-06-21T01:51:47.284Z,0
2017-06-21T01:52:47.274Z,0
2017-06-21T01:53:47.263Z,0
2017-06-21T01:54:47.257Z,0
2017-06-21T01:55:47.271Z,0
2017-06-21T01:56:47.235Z,0
2017-06-21T01:57:47.229Z,0
2017-06-21T01:58:47.219Z,0
2017-06-21T01:59:47.208Z,0
2017-06-21T02:00:47.203Z,0
2017-06-21T02:01:47.194Z,0
2017-06-21T02:02:47.179Z,0
2017-06-21T02:03:47.172Z,0
2017-06-21T02:04:46.864Z,0
2017-06-21T02:05:47.154Z,0
2017-06-21T02:06:47.139Z,0
2017-06-21T02:07:47.133Z,0
2017-06-21T02:08:47.124Z,0
2017-06-21T02:09:47.111Z,0
2017-06-21T02:10:47.106Z,0
2017-06-21T02:11:47.099Z,0
2017-06-21T02:12:47.086Z,0
2017-06-21T02:13:47.073Z,0
2017-06-21T02:14:46.779Z,0
2017-06-21T02:15:47.057Z,0
2017-06-21T02:16:47.049Z,0
2017-06-21T02:17:47.082Z,0
2017-06-21T02:18:47.026Z,0
2017-06-21T02:19:47.017Z,0
2017-06-21T02:20:47.008Z,0
2017-06-21T02:21:47.000Z,0
2017-06-21T02:22:46.691Z,0
2017-06-21T02:23:46.978Z,0
2017-06-21T02:24:46.973Z,0
2017-06-21T02:25:46.666Z,0
2017-06-21T02:26:46.956Z,0
2017-06-21T02:27:46.941Z,0
2017-06-21T02:28:46.938Z,0
2017-06-21T02:29:46.921Z,0
2017-06-21T02:30:46.917Z,0
2017-06-21T02:31:46.904Z,0
2017-06-21T02:32:46.902Z,0
2017-06-21T02:33:46.884Z,0
2017-06-21T02:34:46.873Z,0
2017-06-21T02:35:46.874Z,0
2017-06-21T02:36:46.563Z,0
2017-06-21T02:37:46.553Z,0
2017-06-21T02:38:46.842Z,0
2017-06-21T02:39:46.869Z,0
2017-06-21T02:40:46.520Z,0
2017-06-21T02:41:46.810Z,0
2017-06-21T02:42:46.797Z,0
2017-06-21T02:43:46.797Z,0
2017-06-21T02:44:46.780Z,0
2017-06-21T02:45:46.773Z,0
2017-06-21T02:46:46.795Z,0
2017-06-21T02:47:46.452Z,0
2017-06-21T02:48:46.745Z,0
2017-06-21T02:49:46.130Z,0
2017-06-21T02:50:46.722Z,0
2017-06-21T02:51:46.714Z,0
2017-06-21T02:52:46.708Z,0
2017-06-21T02:53:46.698Z,0
2017-06-21T02:54:46.685Z,0
2017-06-21T02:55:46.679Z,0
2017-06-21T02:56:46.666Z,0
2017-06-21T02:57:46.652Z,0
2017-06-21T02:58:46.346Z,0
2017-06-21T02:59:46.640Z,0
2017-06-21T03:00:46.633Z,0
2017-06-21T03:01:46.321Z,0
2017-06-21T03:02:46.606Z,0
2017-06-21T03:03:46.600Z,0
2017-06-21T03:04:46.592Z,0
2017-06-21T03:05:46.580Z,0
2017-06-21T03:06:46.573Z,0
2017-06-21T03:07:46.560Z,5
2017-06-21T03:08:46.545Z,5
2017-06-21T03:09:46.544Z,5
2017-06-21T03:10:46.228Z,5
2017-06-21T03:11:46.522Z,5
2017-06-21T03:12:46.508Z,5
2017-06-21T03:13:46.501Z,5
2017-06-21T03:14:46.496Z,5
2017-06-21T03:15:46.178Z,5
2017-06-21T03:16:46.175Z,5
2017-06-21T03:17:46.159Z,5
2017-06-21T03:18:46.455Z,10
2017-06-21T03:19:46.450Z,10
2017-06-21T03:20:46.138Z,10
2017-06-21T03:21:46.426Z,10
2017-06-21T03:22:46.411Z,15
2017-06-21T03:23:46.104Z,15
2017-06-21T03:24:46.395Z,20
2017-06-21T03:25:46.087Z,15
2017-06-21T03:26:46.372Z,15
2017-06-21T03:27:46.363Z,15
2017-06-21T03:28:46.050Z,20
2017-06-21T03:29:45.739Z,15
2017-06-21T03:30:46.340Z,20
2017-06-21T03:31:46.320Z,25
2017-06-21T03:32:46.318Z,25
2017-06-21T03:33:46.003Z,30
2017-06-21T03:34:46.297Z,35
2017-06-21T03:35:45.681Z,30
2017-06-21T03:36:45.972Z,30
2017-06-21T03:37:46.274Z,30
2017-06-21T03:38:46.257Z,30
2017-06-21T03:39:46.284Z,35
2017-06-21T03:40:46.233Z,40
2017-06-21T03:41:46.222Z,30
2017-06-21T03:42:45.915Z,25
2017-06-21T03:43:46.210Z,30
2017-06-21T03:44:46.197Z,30
2017-06-21T03:45:45.879Z,35
2017-06-21T03:46:46.172Z,30
2017-06-21T03:47:45.868Z,30
2017-06-21T03:48:46.155Z,40
2017-06-21T03:49:46.149Z,45
2017-06-21T03:50:46.136Z,45
2017-06-21T03:51:46.127Z,40
2017-06-21T03:52:46.117Z,40
2017-06-21T03:53:46.110Z,50
2017-06-21T03:54:46.098Z,60
2017-06-21T03:55:46.085Z,75
2017-06-21T03:56:46.077Z,75
2017-06-21T03:57:45.768Z,60
2017-06-21T03:58:46.061Z,60
2017-06-21T03:59:45.747Z,70
2017-06-21T04:00:46.066Z,60
2017-06-21T04:01:46.026Z,55
2017-06-21T04:02:46.020Z,45
2017-06-21T04:03:46.010Z,45
2017-06-21T04:04:45.703Z,55
2017-06-21T04:05:45.991Z,70
2017-06-21T04:06:45.980Z,110
2017-06-21T04:07:45.670Z,170
2017-06-21T04:08:45.662Z,160
2017-06-21T04:09:45.646Z,105
2017-06-21T04:10:45.635Z,105
2017-06-21T04:11:45.634Z,90
2017-06-21T04:12:45.624Z,100
2017-06-21T04:13:45.614Z,90
2017-06-21T04:14:45.605Z,80
2017-06-21T04:15:45.294Z,80
2017-06-21T04:16:45.590Z,90
2017-06-21T04:17:45.274Z,95
2017-06-21T04:18:45.564Z,100
2017-06-21T04:19:45.552Z,135
2017-06-21T04:20:45.592Z,150
2017-06-21T04:21:45.843Z,150
2017-06-21T04:22:45.823Z,125
2017-06-21T04:23:45.516Z,115
2017-06-21T04:24:45.805Z,120
2017-06-21T04:25:45.797Z,115
2017-06-21T04:26:45.788Z,105
2017-06-21T04:27:45.774Z,105
2017-06-21T04:28:45.771Z,85
2017-06-21T04:29:45.764Z,100
2017-06-21T04:30:45.452Z,145
2017-06-21T04:31:45.440Z,220
2017-06-21T04:32:45.428Z,265
2017-06-21T04:33:45.425Z,245
2017-06-21T04:34:45.721Z,250
2017-06-21T04:35:45.706Z,250
2017-06-21T04:36:45.700Z,235
2017-06-21T04:37:45.689Z,240
2017-06-21T04:38:45.074Z,225
2017-06-21T04:39:45.675Z,200
2017-06-21T04:40:45.657Z,155
2017-06-21T04:41:45.657Z,150
2017-06-21T04:42:45.650Z,160
2017-06-21T04:43:45.335Z,145
2017-06-21T04:44:45.630Z,165
2017-06-21T04:45:45.628Z,175
2017-06-21T04:46:45.356Z,190
2017-06-21T04:47:45.606Z,240
2017-06-21T04:48:45.633Z,295
2017-06-21T04:49:45.591Z,270
2017-06-21T04:50:45.584Z,250
2017-06-21T04:51:45.575Z,195
2017-06-21T04:52:45.561Z,185
2017-06-21T04:53:45.556Z,200
2017-06-21T04:54:45.549Z,250
2017-06-21T04:55:45.232Z,295
2017-06-21T04:56:45.231Z,335
2017-06-21T04:57:44.927Z,295
2017-06-21T04:58:45.211Z,275
2017-06-21T04:59:45.209Z,320
2017-06-21T05:00:45.500Z,385
2017-06-21T05:01:45.494Z,325
2017-06-21T05:02:45.480Z,300
2017-06-21T05:03:45.471Z,295
2017-06-21T05:04:45.462Z,280
2017-06-21T05:05:45.448Z,295
2017-06-21T05:06:45.451Z,325
2017-06-21T05:07:45.431Z,330
2017-06-21T05:08:45.427Z,315
2017-06-21T05:09:45.417Z,285
2017-06-21T05:10:45.407Z,295
2017-06-21T05:11:45.398Z,290
2017-06-21T05:12:45.386Z,280
2017-06-21T05:13:45.390Z,280
2017-06-21T05:14:45.369Z,325
2017-06-21T05:15:45.064Z,320
2017-06-21T05:16:45.357Z,400
2017-06-21T05:17:45.347Z,420
2017-06-21T05:18:45.333Z,455
2017-06-21T05:19:45.324Z,515
2017-06-21T05:20:45.317Z,565
2017-06-21T05:21:45.011Z,535
2017-06-21T05:22:45.301Z,525
2017-06-21T05:23:45.292Z,565
2017-06-21T05:24:44.975Z,615
2017-06-21T05:25:44.965Z,610
2017-06-21T05:26:44.960Z,555
2017-06-21T05:27:44.949Z,620
2017-06-21T05:28:44.640Z,720
2017-06-21T05:29:44.930Z,680
2017-06-21T05:30:44.932Z,730
2017-06-21T05:31:44.916Z,710
2017-06-21T05:32:44.897Z,620
2017-06-21T05:33:44.589Z,595
2017-06-21T05:34:44.887Z,650
2017-06-21T05:35:44.873Z,670
2017-06-21T05:36:45.168Z,640
2017-06-21T05:37:44.857Z,645
2017-06-21T05:38:45.145Z,675
2017-06-21T05:39:44.837Z,735
2017-06-21T05:40:44.828Z,670
2017-06-21T05:41:44.816Z,700
2017-06-21T05:42:45.106Z,715
2017-06-21T05:43:45.099Z,730
2017-06-21T05:44:44.796Z,745
2017-06-21T05:45:45.090Z,750
2017-06-21T05:46:45.073Z,745
2017-06-21T05:47:44.755Z,735
2017-06-21T05:48:45.070Z,795
2017-06-21T05:49:44.740Z,845
2017-06-21T05:50:45.030Z,870
2017-06-21T05:51:44.727Z,650
2017-06-21T05:52:45.021Z,540
2017-06-21T05:53:45.005Z,485
2017-06-21T05:54:44.999Z,450
2017-06-21T05:55:44.990Z,445
2017-06-21T05:56:44.981Z,470
2017-06-21T05:57:44.971Z,485
2017-06-21T05:58:44.959Z,455
2017-06-21T05:59:44.650Z,395
2017-06-21T06:00:44.635Z,385
2017-06-21T06:01:44.933Z,375
2017-06-21T06:02:44.624Z,370
2017-06-21T06:03:44.912Z,370
2017-06-21T06:04:44.899Z,405
2017-06-21T06:05:44.593Z,395
2017-06-21T06:06:44.885Z,400
2017-06-21T06:07:44.880Z,485
2017-06-21T06:08:44.864Z,495
2017-06-21T06:09:44.857Z,410
2017-06-21T06:10:44.847Z,450
2017-06-21T06:11:44.842Z,495
2017-06-21T06:12:44.527Z,505
2017-06-21T06:13:44.819Z,595
2017-06-21T06:14:44.809Z,865
2017-06-21T06:15:44.802Z,850
2017-06-21T06:16:44.788Z,1210
2017-06-21T06:17:44.784Z,1500
2017-06-21T06:18:44.766Z,1240
2017-06-21T06:19:44.757Z,2100
2017-06-21T06:20:44.749Z,1830
2017-06-21T06:21:44.746Z,1065
2017-06-21T06:22:44.730Z,1290
2017-06-21T06:23:44.721Z,1405
2017-06-21T06:24:44.413Z,1335
2017-06-21T06:25:44.709Z,1070
2017-06-21T06:26:44.702Z,1040
2017-06-21T06:27:44.689Z,770
2017-06-21T06:28:44.680Z,650
2017-06-21T06:29:44.366Z,945
2017-06-21T06:30:44.358Z,1020
2017-06-21T06:31:44.345Z,1755
2017-06-21T06:32:44.344Z,2105
2017-06-21T06:33:44.333Z,1400
2017-06-21T06:34:44.628Z,1270
2017-06-21T06:35:44.621Z,900
2017-06-21T06:36:44.608Z,1085
2017-06-21T06:37:44.297Z,1475
2017-06-21T06:38:44.587Z,1270
2017-06-21T06:39:43.979Z,615
2017-06-21T06:40:44.573Z,475
2017-06-21T06:41:44.264Z,565
2017-06-21T06:42:44.553Z,1105
2017-06-21T06:43:44.546Z,1175
2017-06-21T06:44:44.533Z,805
2017-06-21T06:45:44.528Z,965
2017-06-21T06:46:44.521Z,1270
2017-06-21T06:47:44.514Z,1245
2017-06-21T06:48:44.500Z,1175
2017-06-21T06:49:43.892Z,1035
2017-06-21T06:50:44.480Z,895
2017-06-21T06:51:44.475Z,1000
2017-06-21T06:52:44.467Z,990
2017-06-21T06:53:44.159Z,680
2017-06-21T06:54:44.441Z,665
2017-06-21T06:55:44.438Z,670
2017-06-21T06:56:44.429Z,1020
2017-06-21T06:57:44.422Z,910
2017-06-21T06:58:44.107Z,715
2017-06-21T06:59:44.404Z,710
2017-06-21T07:00:43.791Z,715
2017-06-21T07:01:44.085Z,810
2017-06-21T07:02:44.378Z,795
2017-06-21T07:03:44.061Z,770
2017-06-21T07:04:44.396Z,895
2017-06-21T07:05:44.344Z,1125
2017-06-21T07:06:43.748Z,1310
2017-06-21T07:07:44.027Z,1250
2017-06-21T07:08:44.320Z,1220
2017-06-21T07:09:44.322Z,1260
2017-06-21T07:10:44.307Z,1760
2017-06-21T07:11:43.991Z,1560
2017-06-21T07:12:43.981Z,1640
2017-06-21T07:13:44.276Z,1345
2017-06-21T07:14:43.968Z,710
2017-06-21T07:15:43.648Z,640
2017-06-21T07:16:44.248Z,705
2017-06-21T07:17:44.240Z,735
2017-06-21T07:18:43.927Z,730
2017-06-21T07:19:43.928Z,485
2017-06-21T07:20:43.919Z,425
2017-06-21T07:21:44.212Z,550
2017-06-21T07:22:43.897Z,565
2017-06-21T07:23:43.898Z,555
2017-06-21T07:24:44.186Z,455
2017-06-21T07:25:44.176Z,390
2017-06-21T07:26:43.862Z,360
2017-06-21T07:27:44.159Z,335
2017-06-21T07:28:44.148Z,300
2017-06-21T07:29:44.139Z,305
2017-06-21T07:30:44.131Z,285
2017-06-21T07:31:44.121Z,295
2017-06-21T07:32:44.109Z,275
2017-06-21T07:33:44.121Z,290
2017-06-21T07:34:43.809Z,360
2017-06-21T07:35:43.809Z,460
2017-06-21T07:36:43.783Z,370
2017-06-21T07:37:43.779Z,445
2017-06-21T07:38:44.067Z,660
2017-06-21T07:39:44.055Z,740
2017-06-21T07:40:44.059Z,905
2017-06-21T07:41:44.056Z,1290
2017-06-21T07:42:43.731Z,3700
2017-06-21T07:43:44.026Z,1565
2017-06-21T07:44:44.059Z,3600
2017-06-21T07:45:44.013Z,3510
2017-06-21T07:46:43.998Z,1995
2017-06-21T07:47:43.992Z,1910
2017-06-21T07:48:43.985Z,1205
2017-06-21T07:49:43.681Z,1480
2017-06-21T07:50:43.972Z,1570
2017-06-21T07:51:43.962Z,1410
2017-06-21T07:52:43.952Z,1200
2017-06-21T07:53:43.944Z,1220
2017-06-21T07:54:43.937Z,1865
2017-06-21T07:55:43.927Z,1620
2017-06-21T07:56:43.924Z,1740
2017-06-21T07:57:43.607Z,1795
2017-06-21T07:58:43.610Z,2005
2017-06-21T07:59:43.896Z,2535
2017-06-21T08:00:43.888Z,3435
2017-06-21T08:01:43.880Z,2700
2017-06-21T08:02:43.871Z,1715
2017-06-21T08:03:43.868Z,2715
2017-06-21T08:04:43.861Z,2695
2017-06-21T08:05:43.853Z,1750
2017-06-21T08:06:43.572Z,1500
2017-06-21T08:07:43.830Z,1240
2017-06-21T08:08:43.828Z,1175
2017-06-21T08:09:43.818Z,1460
2017-06-21T08:10:43.807Z,2050
2017-06-21T08:11:43.800Z,1630
2017-06-21T08:12:43.792Z,1525
2017-06-21T08:13:43.780Z,1610
2017-06-21T08:14:43.777Z,1525
2017-06-21T08:15:43.768Z,1635
2017-06-21T08:16:43.759Z,1875
2017-06-21T08:17:43.752Z,3185
2017-06-21T08:18:43.744Z,4040
2017-06-21T08:19:43.739Z,3345
2017-06-21T08:20:43.720Z,1415
2017-06-21T08:21:43.717Z,3045
2017-06-21T08:22:43.715Z,1805
2017-06-21T08:23:43.400Z,3730
2017-06-21T08:24:43.696Z,3915
2017-06-21T08:25:43.388Z,2990
2017-06-21T08:26:43.676Z,1755
2017-06-21T08:27:43.666Z,1530
2017-06-21T08:28:43.660Z,3790
2017-06-21T08:29:43.652Z,3665
2017-06-21T08:30:43.344Z,3345
2017-06-21T08:31:43.654Z,3870
2017-06-21T08:32:43.631Z,4470
2017-06-21T08:33:43.626Z,3425
2017-06-21T08:34:43.621Z,3540
2017-06-21T08:35:43.613Z,3665
2017-06-21T08:36:43.607Z,3120
2017-06-21T08:37:43.599Z,3520
2017-06-21T08:38:43.585Z,3800
2017-06-21T08:39:43.587Z,3380
2017-06-21T08:40:43.585Z,3340
2017-06-21T08:41:43.568Z,3650
2017-06-21T08:42:43.574Z,3470
2017-06-21T08:43:43.559Z,3435
2017-06-21T08:44:43.556Z,3465
2017-06-21T08:45:43.547Z,3245
2017-06-21T08:46:42.948Z,3205
2017-06-21T08:47:43.235Z,4025
2017-06-21T08:48:43.532Z,3750
2017-06-21T08:49:43.532Z,4310
2017-06-21T08:50:43.517Z,4500
2017-06-21T08:51:43.519Z,4160
2017-06-21T08:52:43.504Z,3945
2017-06-21T08:53:43.509Z,3710
2017-06-21T08:54:43.500Z,2100
2017-06-21T08:55:43.491Z,4035
2017-06-21T08:56:43.486Z,4360
2017-06-21T08:57:43.476Z,4390
2017-06-21T08:58:42.874Z,2190
2017-06-21T08:59:43.464Z,3275
2017-06-21T09:00:43.463Z,3670
2017-06-21T09:01:43.456Z,3360
2017-06-21T09:02:43.453Z,3040
2017-06-21T09:03:43.434Z,4435
2017-06-21T09:04:43.436Z,4540
2017-06-21T09:05:43.129Z,2975
2017-06-21T09:06:43.424Z,3955
2017-06-21T09:07:43.427Z,2515
2017-06-21T09:08:43.405Z,4540
2017-06-21T09:09:43.104Z,5145
2017-06-21T09:10:42.788Z,4470
2017-06-21T09:11:42.784Z,2145
2017-06-21T09:12:43.385Z,1885
2017-06-21T09:13:43.378Z,2455
2017-06-21T09:14:43.069Z,4655
2017-06-21T09:15:43.067Z,4355
2017-06-21T09:16:43.058Z,4610
2017-06-21T09:17:43.352Z,5100
2017-06-21T09:18:43.343Z,4585
2017-06-21T09:19:43.349Z,4590
2017-06-21T09:20:43.341Z,4355
2017-06-21T09:21:43.338Z,3775
2017-06-21T09:22:43.330Z,3730
2017-06-21T09:23:43.316Z,3900
2017-06-21T09:24:43.320Z,3650
2017-06-21T09:25:43.315Z,3425
2017-06-21T09:26:42.701Z,3985
2017-06-21T09:27:43.299Z,4690
2017-06-21T09:28:42.990Z,4455
2017-06-21T09:29:43.292Z,4090
2017-06-21T09:30:42.979Z,4750
2017-06-21T09:31:42.973Z,5150
2017-06-21T09:32:43.266Z,4630
2017-06-21T09:33:42.966Z,4655
2017-06-21T09:34:42.958Z,4620
2017-06-21T09:35:43.249Z,4170
2017-06-21T09:36:43.250Z,4165
2017-06-21T09:37:43.241Z,3885
2017-06-21T09:38:43.240Z,4170
2017-06-21T09:39:42.966Z,4910
2017-06-21T09:40:43.224Z,4460
2017-06-21T09:41:43.228Z,4355
2017-06-21T09:42:43.215Z,4795
2017-06-21T09:43:43.215Z,4740
2017-06-21T09:44:43.205Z,4875
2017-06-21T09:45:43.200Z,4815
2017-06-21T09:46:42.594Z,4080
2017-06-21T09:47:43.189Z,3825
2017-06-21T09:48:43.188Z,4275
2017-06-21T09:49:43.183Z,4255
2017-06-21T09:50:42.872Z,4220
2017-06-21T09:51:43.176Z,4105
2017-06-21T09:52:42.567Z,4165
2017-06-21T09:53:43.161Z,4200
2017-06-21T09:54:42.848Z,4245
2017-06-21T09:55:42.841Z,3995
2017-06-21T09:56:43.144Z,4025
2017-06-21T09:57:43.137Z,4635
2017-06-21T09:58:43.126Z,4625
2017-06-21T09:59:43.124Z,4215
2017-06-21T10:00:43.118Z,4275
2017-06-21T10:01:42.814Z,4560
2017-06-21T10:02:43.105Z,4595
2017-06-21T10:03:43.126Z,4300
2017-06-21T10:04:42.800Z,4405
2017-06-21T10:05:42.787Z,4960
2017-06-21T10:06:43.089Z,4860
2017-06-21T10:07:42.779Z,4205
2017-06-21T10:08:43.081Z,4395
2017-06-21T10:09:43.102Z,4630
2017-06-21T10:10:42.815Z,4865
2017-06-21T10:11:43.068Z,4845
2017-06-21T10:12:42.759Z,4560
2017-06-21T10:13:43.054Z,5250
2017-06-21T10:14:43.049Z,4840
2017-06-21T10:15:43.049Z,4335
2017-06-21T10:16:43.041Z,4430
2017-06-21T10:17:43.040Z,4520
2017-06-21T10:18:43.033Z,4385
2017-06-21T10:19:43.029Z,4400
2017-06-21T10:20:43.028Z,4275
2017-06-21T10:21:43.037Z,4510
2017-06-21T10:22:43.022Z,4590
2017-06-21T10:23:43.019Z,4520
2017-06-21T10:24:42.713Z,4375
2017-06-21T10:25:43.013Z,4150
2017-06-21T10:26:43.010Z,3855
2017-06-21T10:27:42.706Z,3945
2017-06-21T10:28:43.006Z,4055
2017-06-21T10:29:43.001Z,4080
2017-06-21T10:30:43.003Z,3780
2017-06-21T10:31:42.993Z,3520
2017-06-21T10:32:42.997Z,3040
2017-06-21T10:33:42.991Z,2910
2017-06-21T10:34:42.996Z,3325
2017-06-21T10:35:42.384Z,3810
2017-06-21T10:36:42.680Z,4655
2017-06-21T10:37:42.983Z,4835
2017-06-21T10:38:42.675Z,4280
2017-06-21T10:39:42.667Z,4505
2017-06-21T10:40:42.362Z,4945
2017-06-21T10:41:42.679Z,4595
2017-06-21T10:42:42.665Z,4510
2017-06-21T10:43:42.654Z,4905
2017-06-21T10:44:42.652Z,4460
2017-06-21T10:45:42.652Z,3955
2017-06-21T10:46:42.949Z,4295
2017-06-21T10:47:42.956Z,4920
2017-06-21T10:48:42.939Z,5180
2017-06-21T10:49:42.938Z,4600
2017-06-21T10:50:42.929Z,4500
2017-06-21T10:51:42.632Z,4810
2017-06-21T10:52:42.934Z,4510
2017-06-21T10:53:42.929Z,4245
2017-06-21T10:54:42.625Z,4915
2017-06-21T10:55:42.920Z,5180
2017-06-21T10:56:42.615Z,4085
2017-06-21T10:57:42.914Z,4035
2017-06-21T10:58:42.613Z,5260
2017-06-21T10:59:42.908Z,5010
2017-06-21T11:00:42.918Z,4455
2017-06-21T11:01:42.592Z,5150
2017-06-21T11:02:42.894Z,5450
2017-06-21T11:03:42.884Z,5125
2017-06-21T11:04:42.892Z,5525
2017-06-21T11:05:42.882Z,5880
2017-06-21T11:06:42.580Z,6825
2017-06-21T11:07:42.568Z,6880
2017-06-21T11:08:42.565Z,6745
2017-06-21T11:09:42.868Z,6010
2017-06-21T11:10:42.867Z,1730
2017-06-21T11:11:42.560Z,1770
2017-06-21T11:12:42.562Z,4605
2017-06-21T11:13:42.557Z,5125
2017-06-21T11:14:42.857Z,6120
2017-06-21T11:15:42.853Z,4810
2017-06-21T11:16:42.856Z,4405
2017-06-21T11:17:42.550Z,4270
2017-06-21T11:18:42.842Z,4205
2017-06-21T11:19:42.843Z,3635
2017-06-21T11:20:42.541Z,3050
2017-06-21T11:21:42.535Z,3315
2017-06-21T11:22:42.540Z,3110
2017-06-21T11:23:42.832Z,3125
2017-06-21T11:24:42.835Z,3105
2017-06-21T11:25:42.535Z,3160
2017-06-21T11:26:42.527Z,3675
2017-06-21T11:27:42.523Z,3435
2017-06-21T11:28:42.818Z,3130
2017-06-21T11:29:42.516Z,3255
2017-06-21T11:30:42.518Z,3205
2017-06-21T11:31:42.513Z,2875
2017-06-21T11:32:42.816Z,3630
2017-06-21T11:33:42.812Z,4710
2017-06-21T11:34:42.806Z,4890
2017-06-21T11:35:42.508Z,1515
2017-06-21T11:36:42.507Z,2095
2017-06-21T11:37:42.808Z,4020
2017-06-21T11:38:42.806Z,5590
2017-06-21T11:39:42.798Z,5810
2017-06-21T11:40:42.797Z,2890
2017-06-21T11:41:42.488Z,4725
2017-06-21T11:42:42.489Z,5680
2017-06-21T11:43:42.485Z,5805
2017-06-21T11:44:42.788Z,4645
2017-06-21T11:45:42.484Z,3975
2017-06-21T11:46:42.477Z,5275
2017-06-21T11:47:42.472Z,1655
2017-06-21T11:48:42.475Z,1540
2017-06-21T11:49:42.811Z,1655
2017-06-21T11:50:42.795Z,5910
2017-06-21T11:51:42.773Z,5405
2017-06-21T11:52:42.466Z,4630
2017-06-21T11:53:42.760Z,4380
2017-06-21T11:54:42.460Z,4405
2017-06-21T11:55:42.457Z,4755
2017-06-21T11:56:42.967Z,4860
2017-06-21T11:57:42.150Z,4770
2017-06-21T11:58:42.143Z,4690
2017-06-21T11:59:42.461Z,4735
2017-06-21T12:00:42.746Z,4980
2017-06-21T12:01:42.754Z,5180
2017-06-21T12:02:42.744Z,6055
2017-06-21T12:03:42.139Z,6230
2017-06-21T12:04:41.828Z,5880
2017-06-21T12:05:42.130Z,2210
2017-06-21T12:06:42.134Z,2155
2017-06-21T12:07:42.332Z,2605
2017-06-21T12:08:42.429Z,3755
2017-06-21T12:09:41.826Z,3190
2017-06-21T12:10:41.819Z,4515
2017-06-21T12:11:41.832Z,4275
2017-06-21T12:12:41.813Z,3940
2017-06-21T12:13:42.113Z,3890
2017-06-21T12:14:41.813Z,3440
2017-06-21T12:15:42.410Z,3595
2017-06-21T12:16:42.418Z,3405
2017-06-21T12:17:42.107Z,3305
2017-06-21T12:18:42.399Z,2605
2017-06-21T12:19:42.101Z,1990
2017-06-21T12:20:42.394Z,2000
2017-06-21T12:21:42.096Z,1955
2017-06-21T12:22:41.791Z,2570
2017-06-21T12:23:42.390Z,2660
2017-06-21T12:24:42.084Z,2465
2017-06-21T12:25:42.082Z,2135
2017-06-21T12:26:42.079Z,1990
2017-06-21T12:27:42.370Z,1950
2017-06-21T12:28:42.368Z,2045
2017-06-21T12:29:42.363Z,2540
2017-06-21T12:30:42.674Z,2300
2017-06-21T12:31:42.668Z,2600
2017-06-21T12:32:42.565Z,3075
2017-06-21T12:33:42.057Z,3090
2017-06-21T12:34:42.650Z,3100
2017-06-21T12:35:42.647Z,2995
2017-06-21T12:36:42.646Z,2950
2017-06-21T12:37:42.639Z,2750
2017-06-21T12:38:42.529Z,2810
2017-06-21T12:39:42.631Z,2850
2017-06-21T12:40:42.326Z,2830
2017-06-21T12:41:42.632Z,2865
2017-06-21T12:42:42.616Z,2790
2017-06-21T12:43:42.316Z,2740
2017-06-21T12:44:42.310Z,2755
2017-06-21T12:45:42.306Z,2815
2017-06-21T12:46:42.306Z,2825
2017-06-21T12:47:42.295Z,2695
2017-06-21T12:48:42.596Z,2615
2017-06-21T12:49:42.291Z,2505
2017-06-21T12:50:42.286Z,2465
2017-06-21T12:51:42.588Z,2465
2017-06-21T12:52:42.283Z,2435
2017-06-21T12:53:42.273Z,2285
2017-06-21T12:54:41.968Z,2390
2017-06-21T12:55:42.273Z,2480
2017-06-21T12:56:41.959Z,2440
2017-06-21T12:57:41.961Z,2455
2017-06-21T12:58:42.259Z,2510
2017-06-21T12:59:42.254Z,2580
2017-06-21T13:00:42.250Z,2865
2017-06-21T13:01:42.552Z,3030
2017-06-21T13:02:42.238Z,2925
2017-06-21T13:03:42.541Z,2680
2017-06-21T13:04:42.544Z,3210
2017-06-21T13:05:42.542Z,3825
2017-06-21T13:06:42.231Z,2310
2017-06-21T13:07:42.558Z,2695
2017-06-21T13:08:42.223Z,2040
2017-06-21T13:09:42.237Z,2130
2017-06-21T13:10:42.216Z,2665
2017-06-21T13:11:42.511Z,2690
2017-06-21T13:12:42.511Z,2120
2017-06-21T13:13:55.891Z,1695
2017-06-21T13:14:42.414Z,1615
2017-06-21T13:15:42.201Z,1615
2017-06-21T13:16:42.199Z,2670
2017-06-21T13:17:42.508Z,2820
2017-06-21T13:18:42.697Z,2035
2017-06-21T13:19:42.701Z,1695
2017-06-21T13:20:42.185Z,1750
2017-06-21T13:21:42.183Z,1805
2017-06-21T13:22:42.190Z,1705
2017-06-21T13:23:42.486Z,1995
2017-06-21T13:24:42.176Z,1910
2017-06-21T13:25:42.169Z,1805
2017-06-21T13:26:42.168Z,1620
2017-06-21T13:27:42.163Z,1500
2017-06-21T13:28:42.462Z,1415
2017-06-21T13:29:42.159Z,1380
2017-06-21T13:30:42.156Z,1385
2017-06-21T13:31:42.155Z,1410
2017-06-21T13:32:42.146Z,1380
2017-06-21T13:33:42.159Z,1340
2017-06-21T13:34:42.138Z,1315
2017-06-21T13:35:42.436Z,1230
2017-06-21T13:36:41.831Z,1210
2017-06-21T13:37:42.431Z,1285
2017-06-21T13:38:42.428Z,1450
2017-06-21T13:39:42.429Z,1850
2017-06-21T13:40:42.418Z,2140
2017-06-21T13:41:42.422Z,2555
2017-06-21T13:42:41.815Z,2695
2017-06-21T13:43:41.810Z,2560
2017-06-21T13:44:42.402Z,2590
2017-06-21T13:45:42.415Z,2370
2017-06-21T13:46:42.404Z,2445
2017-06-21T13:47:42.095Z,2635